createdAt,value
2018-07-02T00:02:03.433Z,68.44
2018-07-02T00:06:58.946Z,68.70
2018-07-02T00:11:42.501Z,67.83
2018-07-02T00:16:30.536Z,67.95
2018-07-02T00:21:14.068Z,68.54
2018-07-02T00:25:59.349Z,68.22
2018-07-02T00:30:42.909Z,68.71
2018-07-02T00:35:26.432Z,70.94
2018-07-02T00:40:13.157Z,69.21
2018-07-02T00:44:56.686Z,69.22
2018-07-02T00:49:43.180Z,68.06
2018-07-02T00:54:26.777Z,67.58
2018-07-02T00:59:13.504Z,66.22
2018-07-02T01:03:58.834Z,67.24
2018-07-02T01:08:42.516Z,67.11
2018-07-02T01:13:26.133Z,66.24
2018-07-02T01:18:09.851Z,65.64
2018-07-02T01:22:53.357Z,65.72
2018-07-02T01:27:37.073Z,65.19
2018-07-02T01:32:20.587Z,64.87
2018-07-02T01:37:05.267Z,64.55
2018-07-02T01:41:48.906Z,66.37
2018-07-02T01:46:33.508Z,65.89
2018-07-02T01:51:17.107Z,62.96
2018-07-02T01:56:01.820Z,63.65
2018-07-02T02:00:45.236Z,61.67
2018-07-02T02:05:28.865Z,63.44
2018-07-02T02:10:12.345Z,64.08
2018-07-02T02:14:55.825Z,63.73
2018-07-02T02:19:40.664Z,64.20
2018-07-02T02:24:24.145Z,65.38
2018-07-02T02:29:07.720Z,66.81
2018-07-02T02:33:51.228Z,65.14
2018-07-02T02:38:37.823Z,64.54
2018-07-02T02:43:21.472Z,64.05
2018-07-02T02:48:05.427Z,65.40
2018-07-02T02:52:49.016Z,65.32
2018-07-02T02:57:33.697Z,66.96
2018-07-02T03:02:17.340Z,63.94
2018-07-02T03:07:10.210Z,64.97
2018-07-02T03:11:53.897Z,66.28
2018-07-02T03:16:38.804Z,65.03
2018-07-02T03:21:22.484Z,66.91
2018-07-02T03:26:07.149Z,66.20
2018-07-02T03:30:50.730Z,66.57
2018-07-02T03:35:37.792Z,67.32
2018-07-02T03:40:21.319Z,67.32
2018-07-02T03:45:04.976Z,67.41
2018-07-02T03:49:51.621Z,68.18
2018-07-02T03:54:35.156Z,67.53
2018-07-02T03:59:21.774Z,67.66
2018-07-02T04:04:23.116Z,67.05
2018-07-02T04:09:11.654Z,65.97
2018-07-02T04:13:55.685Z,66.83
2018-07-02T04:18:39.316Z,66.91
2018-07-02T04:23:23.952Z,65.35
2018-07-02T04:28:07.578Z,65.77
2018-07-02T04:32:52.151Z,65.65
2018-07-02T04:37:35.782Z,65.74
2018-07-02T04:42:20.311Z,66.58
2018-07-02T04:47:03.914Z,66.19
2018-07-02T04:51:47.581Z,66.04
2018-07-02T04:56:31.158Z,65.38
2018-07-02T05:01:14.671Z,65.49
2018-07-02T05:06:04.213Z,67.45
2018-07-02T05:10:47.817Z,68.78
2018-07-02T05:15:31.426Z,69.76
2018-07-02T05:20:14.968Z,70.26
2018-07-02T05:25:02.279Z,69.04
2018-07-02T05:29:45.963Z,70.18
2018-07-02T05:34:32.845Z,71.10
2018-07-02T05:39:16.592Z,70.92
2018-07-02T05:44:04.036Z,68.96
2018-07-02T05:48:48.613Z,70.63
2018-07-02T05:53:32.497Z,71.38
2018-07-02T05:58:16.170Z,71.63
2018-07-02T06:03:00.009Z,71.72
2018-07-02T06:07:43.731Z,57.75
2018-07-02T06:12:27.360Z,55.54
2018-07-02T06:17:11.056Z,54.59
2018-07-02T06:21:54.604Z,57.65
2018-07-02T06:26:38.150Z,54.43
2018-07-02T06:31:21.696Z,54.63
2018-07-02T06:36:05.241Z,52.69
2018-07-02T06:40:49.541Z,55.98
2018-07-02T06:45:36.466Z,56.31
2018-07-02T06:50:21.132Z,54.06
2018-07-02T06:55:07.149Z,58.87
2018-07-02T06:59:51.360Z,53.24
2018-07-02T07:04:35.745Z,51.79
2018-07-02T07:09:20.495Z,53.45
2018-07-02T07:14:07.874Z,53.21
2018-07-02T07:18:51.426Z,54.59
2018-07-02T07:23:38.967Z,55.76
2018-07-02T07:28:22.840Z,53.08
2018-07-02T07:33:09.508Z,53.51
2018-07-02T07:37:53.152Z,52.60
2018-07-02T07:42:38.010Z,56.89
2018-07-02T07:47:21.579Z,54.81
2018-07-02T07:52:06.226Z,55.97
2018-07-02T07:56:49.768Z,53.01
2018-07-02T08:01:33.206Z,54.53
2018-07-02T08:06:16.801Z,54.32
2018-07-02T08:11:00.243Z,53.50
2018-07-02T08:15:43.881Z,54.45
2018-07-02T08:20:27.565Z,54.61
2018-07-02T08:25:12.306Z,53.03
2018-07-02T08:29:55.896Z,52.99
2018-07-02T08:34:43.190Z,51.08
2018-07-02T08:39:26.853Z,53.16
2018-07-02T08:44:10.676Z,53.25
2018-07-02T08:48:54.191Z,50.98
2018-07-02T08:53:38.876Z,52.21
2018-07-02T08:58:22.504Z,51.67
2018-07-02T09:03:07.230Z,50.73
2018-07-02T09:07:50.770Z,51.33
2018-07-02T09:12:34.478Z,50.78
2018-07-02T09:17:18.024Z,49.89
2018-07-02T09:22:01.660Z,51.79
2018-07-02T09:26:45.130Z,51.24
2018-07-02T09:31:32.652Z,51.99
2018-07-02T09:36:16.264Z,49.25
2018-07-02T09:41:04.029Z,53.97
2018-07-02T09:45:47.457Z,50.61
2018-07-02T09:50:30.923Z,50.24
2018-07-02T09:55:15.581Z,48.88
2018-07-02T09:59:59.155Z,48.34
2018-07-02T10:04:42.840Z,50.27
2018-07-02T10:09:26.449Z,50.19
2018-07-02T10:14:13.637Z,48.65
2018-07-02T10:18:57.228Z,51.28
2018-07-02T10:23:41.965Z,50.71
2018-07-02T10:28:25.575Z,48.91
2018-07-02T10:33:10.582Z,50.80
2018-07-02T10:37:55.382Z,50.88
2018-07-02T10:42:44.644Z,52.17
2018-07-02T10:47:28.314Z,52.21
2018-07-02T10:52:14.008Z,50.31
2018-07-02T10:56:57.651Z,49.28
2018-07-02T11:01:44.091Z,52.10
2018-07-02T11:06:27.538Z,49.56
2018-07-02T11:11:14.619Z,49.84
2018-07-02T11:15:58.246Z,50.40
2018-07-02T11:20:43.336Z,54.02
2018-07-02T11:25:27.142Z,52.84
2018-07-02T11:30:10.722Z,51.30
2018-07-02T11:34:55.601Z,48.34
2018-07-02T11:39:43.241Z,50.85
2018-07-02T11:44:31.360Z,52.03
2018-07-02T11:54:41.857Z,52.86
2018-07-02T11:59:25.289Z,46.90
2018-07-02T12:04:12.028Z,50.10
2018-07-02T12:08:55.818Z,49.65
2018-07-02T12:13:39.550Z,48.03
2018-07-02T12:18:23.082Z,50.41
2018-07-02T12:23:12.459Z,47.86
2018-07-02T12:27:55.920Z,47.15
2018-07-02T12:32:40.588Z,49.98
2018-07-02T12:37:24.127Z,54.81
2018-07-02T12:42:08.817Z,51.75
2018-07-02T12:46:52.482Z,51.90
2018-07-02T12:51:36.163Z,50.53
2018-07-02T12:56:19.858Z,49.85
2018-07-02T13:01:03.624Z,48.33
2018-07-02T13:05:47.311Z,45.35
2018-07-02T13:10:33.997Z,45.37
2018-07-02T13:15:17.580Z,49.37
2018-07-02T13:20:01.167Z,53.13
2018-07-02T13:24:44.600Z,52.94
2018-07-02T13:29:28.111Z,54.38
2018-07-02T13:34:11.846Z,54.15
2018-07-02T13:38:55.372Z,53.75
2018-07-02T13:43:41.992Z,55.73
2018-07-02T13:48:25.544Z,56.74
2018-07-02T13:53:12.771Z,56.20
2018-07-02T13:57:56.296Z,56.66
2018-07-02T14:02:43.410Z,56.07
2018-07-02T14:07:26.942Z,55.39
2018-07-02T14:12:14.195Z,55.73
2018-07-02T14:16:57.817Z,55.79
2018-07-02T14:21:42.742Z,57.20
2018-07-02T14:26:26.288Z,56.78
2018-07-02T14:31:10.857Z,55.45
2018-07-02T14:35:54.380Z,54.78
2018-07-02T14:40:39.172Z,55.67
2018-07-02T14:45:22.976Z,55.89
2018-07-02T14:50:07.784Z,56.76
2018-07-02T14:54:51.421Z,56.83
2018-07-02T14:59:36.707Z,56.81
2018-07-02T15:04:20.429Z,56.64
2018-07-02T15:09:06.816Z,57.57
2018-07-02T15:13:54.109Z,57.25
2018-07-02T15:18:37.672Z,58.16
2018-07-02T15:23:25.702Z,58.23
2018-07-02T15:28:09.885Z,56.65
2018-07-02T15:32:53.493Z,56.28
2018-07-02T15:37:37.030Z,56.88
2018-07-02T15:42:23.995Z,56.65
2018-07-02T15:47:07.475Z,56.90
2018-07-02T15:51:51.237Z,57.23
2018-07-02T15:56:34.838Z,58.94
2018-07-02T16:01:18.625Z,57.97
2018-07-02T16:06:02.196Z,58.78
2018-07-02T16:10:46.899Z,58.17
2018-07-02T16:15:31.258Z,58.66
2018-07-02T16:20:16.024Z,57.94
2018-07-02T16:25:02.064Z,59.09
2018-07-02T16:29:49.139Z,58.39
2018-07-02T16:34:32.998Z,57.90
2018-07-02T16:39:16.622Z,57.97
2018-07-02T16:44:04.721Z,58.90
2018-07-02T16:48:48.202Z,58.76
2018-07-02T16:53:37.173Z,58.52
2018-07-02T16:58:20.810Z,59.76
2018-07-02T17:03:05.973Z,59.45
2018-07-02T17:07:49.678Z,60.49
2018-07-02T17:12:33.580Z,61.03
2018-07-02T17:17:17.169Z,59.94
2018-07-02T17:22:04.536Z,61.90
2018-07-02T17:26:48.169Z,61.32
2018-07-02T17:31:32.838Z,61.77
2018-07-02T17:36:16.429Z,62.82
2018-07-02T17:41:03.117Z,62.60
2018-07-02T17:45:46.781Z,63.49
2018-07-02T17:50:33.347Z,61.72
2018-07-02T17:55:16.870Z,63.00
2018-07-02T18:00:01.652Z,62.81
2018-07-02T18:04:45.304Z,62.86
2018-07-02T18:09:28.889Z,63.52
2018-07-02T18:14:12.606Z,62.54
2018-07-02T18:18:56.318Z,62.70
2018-07-02T18:23:41.827Z,63.14
2018-07-02T18:28:26.162Z,63.96
2018-07-02T18:33:11.437Z,63.45
2018-07-02T18:37:54.940Z,63.34
2018-07-02T18:42:44.482Z,63.08
2018-07-02T18:47:28.159Z,63.66
2018-07-02T18:52:14.866Z,63.32
2018-07-02T18:56:58.546Z,64.23
2018-07-02T19:03:16.146Z,65.28
2018-07-02T19:08:02.858Z,66.00
2018-07-02T19:12:50.280Z,67.13
2018-07-02T19:17:34.809Z,65.47
2018-07-02T19:22:19.669Z,65.99
2018-07-02T19:27:03.327Z,67.20
2018-07-02T19:31:48.287Z,67.85
2018-07-02T19:36:31.995Z,67.64
2018-07-02T19:41:19.156Z,66.74
2018-07-02T19:46:02.789Z,66.38
2018-07-02T19:50:49.773Z,68.02
2018-07-02T19:55:33.447Z,67.12
2018-07-02T20:00:20.060Z,67.97
2018-07-02T20:05:03.522Z,67.99
2018-07-02T20:09:50.409Z,67.61
2018-07-02T20:14:34.036Z,66.87
2018-07-02T20:19:17.732Z,67.45
2018-07-02T20:24:01.302Z,68.76
2018-07-02T20:28:44.812Z,68.92
2018-07-02T20:33:28.294Z,69.18
2018-07-02T20:38:11.900Z,68.61
2018-07-02T20:42:55.638Z,67.06
2018-07-02T20:47:39.232Z,69.47
2018-07-02T20:52:26.576Z,68.43
2018-07-02T20:57:10.803Z,69.17
2018-07-02T21:01:54.450Z,67.55
2018-07-02T21:06:39.218Z,68.56
2018-07-02T21:11:25.998Z,68.15
2018-07-02T21:16:10.257Z,68.35
2018-07-02T21:20:53.895Z,69.41
2018-07-02T21:25:37.507Z,68.79
2018-07-02T21:30:24.529Z,68.74
2018-07-02T21:35:09.678Z,68.88
2018-07-02T21:39:57.015Z,68.67
2018-07-02T21:44:40.472Z,67.67
2018-07-02T21:49:24.126Z,68.04
2018-07-02T21:54:07.795Z,71.03
2018-07-02T21:58:51.544Z,68.84
2018-07-02T22:03:35.243Z,68.96
2018-07-02T22:08:18.865Z,69.09
2018-07-02T22:13:03.245Z,70.41
2018-07-02T22:17:46.836Z,70.36
2018-07-02T22:22:31.598Z,69.85
2018-07-02T22:27:15.220Z,71.20
2018-07-02T22:31:58.922Z,72.82
2018-07-02T22:36:42.541Z,74.27
2018-07-02T22:41:27.196Z,73.36
2018-07-02T22:46:10.800Z,73.74
2018-07-02T22:50:57.850Z,73.36
2018-07-02T22:55:52.121Z,73.11
2018-07-02T23:00:36.711Z,74.21
2018-07-02T23:05:20.249Z,72.56
2018-07-02T23:10:06.882Z,72.51
2018-07-02T23:14:50.291Z,73.44
2018-07-02T23:19:35.263Z,73.03
2018-07-02T23:24:18.769Z,72.44
2018-07-02T23:29:02.448Z,74.94
2018-07-02T23:33:46.129Z,75.60
2018-07-02T23:38:29.713Z,75.42
2018-07-02T23:43:13.367Z,74.38
2018-07-02T23:47:56.947Z,75.67
2018-07-02T23:52:41.677Z,76.44
2018-07-02T23:57:25.244Z,75.19
